Flight Track Log - Related Links

Times and Time Zones

All times are in EDT time to prevent confusion due to time zone crossing. See the TAM3544 flight status page for this flight to view local times or setup timezone preferences in your user account.


Time Position Orientation Groundspeed Altitude Reporting Facility
EDT Latitude Longitude Course Direction KTS MPH feet Rate Location/Type
Fri 09:27:27 PM -23.4250 -46.4480 180° South 159 183 2,900  Level FlightAware ADS-B
Fri 09:28:42 PM -23.4080 -46.3920 72° East 169 194 5,500 1,490 Climbing FlightAware ADS-B
Fri 09:29:52 PM -23.3750 -46.3240 62° Northeast 267 307 6,500 1,738 Climbing FlightAware ADS-B
Fri 09:31:07 PM -23.2830 -46.2760 26° Northeast 305 351 9,700 2,234 Climbing FlightAware ADS-B
Fri 09:32:17 PM -23.1890 -46.2240 27° Northeast 342 394 11,900 2,009 Climbing FlightAware ADS-B
Fri 09:34:00 PM -22.9847 -46.2475 354° North  Level Estimated
Fri 09:34:42 PM -22.9500 -46.1970 354° North 374 430 16,900  Level FlightAware ADS-B
Fri 09:35:52 PM -22.8280 -46.2180 351° North 371 427 19,600 1,800 Climbing FlightAware ADS-B
Fri 09:37:12 PM -22.6830 -46.2430 351° North 408 470 21,400 1,440 Climbing FlightAware ADS-B
Fri 09:38:22 PM -22.5490 -46.2660 351° North 420 483 23,200 1,614 Climbing FlightAware ADS-B
Fri 09:39:37 PM -22.4040 -46.2910 351° North 422 486 25,300 1,366 Climbing FlightAware ADS-B
Fri 09:40:47 PM -22.2660 -46.3140 351° North 442 509 26,500 993 Climbing FlightAware ADS-B
Fri 09:42:02 PM -22.1100 -46.3410 351° North 452 520 27,700 960 Climbing FlightAware ADS-B
Fri 09:43:17 PM -21.9510 -46.3710 350° North 472 543 28,900 943 Climbing FlightAware ADS-B
Fri 09:44:22 PM -21.8090 -46.3950 351° North 473 544 29,900 993 Climbing FlightAware ADS-B
Fri 09:45:42 PM -21.6330 -46.4230 352° North 473 544 31,300 1,043 Climbing FlightAware ADS-B
Fri 09:46:17 PM -21.5580 -46.4360 351° North 482 555 31,900 1,275 Climbing FlightAware ADS-B
Fri 09:47:02 PM -21.4600 -46.4520 351° North 473 544 33,000 1,425 Climbing FlightAware ADS-B
Fri 09:47:37 PM -21.3960 -46.4620 352° North 466 536 33,800 1,412 Climbing FlightAware ADS-B
Fri 09:48:27 PM -21.2890 -46.4800 351° North 456 525 35,000 1,137 Climbing FlightAware ADS-B
Fri 09:49:12 PM -21.1910 -46.4960 351° North 458 527 35,600 776 Climbing FlightAware ADS-B
Fri 09:49:52 PM -21.1050 -46.5100 351° North 459 528 36,100 750 Climbing FlightAware ADS-B
Fri 09:50:32 PM -21.0180 -46.5240 351° North 462 532 36,600 635 Climbing FlightAware ADS-B
Fri 09:51:17 PM -20.9120 -46.5410 351° North 466 536 37,000 667 Climbing FlightAware ADS-B
Fri 09:52:02 PM -20.8130 -46.5570 351° North 463 533 37,600 706 Climbing FlightAware ADS-B
Fri 09:52:42 PM -20.7310 -46.5700 352° North 461 531 38,000 565 Climbing FlightAware ADS-B
Fri 09:53:27 PM -20.6300 -46.5870 351° North 463 533 38,400 424 Climbing FlightAware ADS-B
Fri 09:54:07 PM -20.5470 -46.6000 352° North 464 534 38,600 300 Climbing FlightAware ADS-B
Fri 09:54:47 PM -20.4610 -46.6160 350° North 464 534 38,800 282 Climbing FlightAware ADS-B
Fri 09:55:32 PM -20.3700 -46.6330 350° North 466 536 39,000 141 Climbing FlightAware ADS-B
Fri 09:56:12 PM -20.2850 -46.6480 351° North 465 535 39,000  Level FlightAware ADS-B
Fri 09:56:57 PM -20.1870 -46.6660 350° North 464 534 39,000  Level FlightAware ADS-B
Fri 09:57:37 PM -20.1020 -46.6810 351° North 464 534 39,000  Level FlightAware ADS-B
Fri 09:58:17 PM -20.0180 -46.6970 350° North 464 534 39,000  Level FlightAware ADS-B
Fri 09:58:57 PM -19.9310 -46.7120 351° North 464 534 39,000  Level FlightAware ADS-B
Fri 09:59:42 PM -19.8360 -46.7290 350° North 464 534 39,000  Level FlightAware ADS-B
Fri 10:00:27 PM -19.7430 -46.7460 350° North 463 533 39,000  Level FlightAware ADS-B
Fri 10:01:07 PM -19.6570 -46.7610 351° North 463 533 39,000  Level FlightAware ADS-B
Fri 10:01:47 PM -19.5720 -46.7770 350° North 463 533 39,000  Level FlightAware ADS-B
Fri 10:02:32 PM -19.4740 -46.7940 351° North 463 533 39,000  Level FlightAware ADS-B
Fri 10:03:12 PM -19.3910 -46.8090 350° North 463 533 39,000  Level FlightAware ADS-B
Fri 10:03:52 PM -19.3040 -46.8240 351° North 464 534 39,000  Level FlightAware ADS-B
Fri 10:04:37 PM -19.2120 -46.8410 350° North 465 535 39,000  Level FlightAware ADS-B
Fri 10:05:17 PM -19.1260 -46.8560 351° North 466 536 39,000  Level FlightAware ADS-B
Fri 10:06:02 PM -19.0290 -46.8730 351° North 466 536 39,000  Level FlightAware ADS-B
Fri 10:06:42 PM -18.9470 -46.8880 350° North 467 537 39,000  Level FlightAware ADS-B
Fri 10:07:22 PM -18.8570 -46.9040 350° North 467 537 39,000  Level FlightAware ADS-B
Fri 10:08:07 PM -18.7630 -46.9210 350° North 467 537 39,000  Level FlightAware ADS-B
Fri 10:08:47 PM -18.6780 -46.9360 351° North 467 537 39,000  Level FlightAware ADS-B
Fri 10:09:22 PM -18.6060 -46.9480 351° North 467 537 39,000  Level FlightAware ADS-B
Fri 10:10:22 PM -18.4840 -46.9700 350° North 469 540 39,000  Level FlightAware ADS-B
Fri 10:10:57 PM -18.4060 -46.9840 350° North 470 541 39,000  Level FlightAware ADS-B
Fri 10:11:52 PM -18.2860 -47.0050 351° North 470 541 39,000  Level FlightAware ADS-B
Fri 10:12:32 PM -18.2010 -47.0200 350° North 470 541 39,000  Level FlightAware ADS-B
Fri 10:13:12 PM -18.1110 -47.0360 350° North 470 541 39,000  Level FlightAware ADS-B
Fri 10:13:52 PM -18.0210 -47.0510 351° North 470 541 39,000  Level FlightAware ADS-B
Fri 10:14:32 PM -17.9490 -47.0640 350° North 470 541 39,000  Level FlightAware ADS-B
Fri 10:15:32 PM -17.8120 -47.0890 350° North 472 543 39,000  Level FlightAware ADS-B
Fri 10:16:12 PM -17.7390 -47.1020 350° North 472 543 39,000  Level FlightAware ADS-B
Fri 10:16:52 PM -17.6660 -47.1160 350° North 472 543 39,000  Level FlightAware ADS-B
Fri 10:17:37 PM -17.5370 -47.1360 352° North 475 547 39,000  Level FlightAware ADS-B
Fri 10:18:22 PM -17.4430 -47.1530 350° North 475 547 39,000  Level FlightAware ADS-B
Fri 10:19:02 PM -17.3700 -47.1670 350° North 475 547 39,000  Level FlightAware ADS-B
Fri 10:19:47 PM -17.2520 -47.1860 351° North 475 547 39,000  Level FlightAware ADS-B
Fri 10:20:22 PM -17.1840 -47.1980 350° North 475 547 39,000  Level FlightAware ADS-B
Fri 10:21:02 PM -17.1100 -47.2120 350° North 475 547 39,000 -141 Level FlightAware ADS-B
Fri 10:21:47 PM -16.9910 -47.2310 351° North 475 547 38,800 -133 Descending FlightAware ADS-B
Fri 10:22:32 PM -16.9060 -47.2470 350° North 475 547 38,800  Level FlightAware ADS-B
Fri 10:23:12 PM -16.8330 -47.2600 350° North 475 547 38,800  Level FlightAware ADS-B
Fri 10:23:52 PM -16.7590 -47.2740 350° North 475 547 38,800 -229 Level FlightAware ADS-B
Fri 10:26:00 PM -16.5046 -47.2950 355° North  Level Estimated
Fri 10:26:42 PM -16.3610 -47.3400 355° North 474 545 38,000  Level FlightAware ADS-B
Fri 10:27:27 PM -16.2660 -47.3570 350° North 474 545 38,000  Level FlightAware ADS-B
Fri 10:28:07 PM -16.1710 -47.3730 351° North 473 544 38,000  Level FlightAware ADS-B
Fri 10:28:52 PM -16.0750 -47.3890 351° North 472 543 38,000  Level FlightAware ADS-B
Fri 10:29:32 PM -15.9840 -47.4050 350° North 472 543 38,000  Level FlightAware ADS-B
Fri 10:30:12 PM -15.9000 -47.4200 350° North 473 544 38,000  Level FlightAware ADS-B
Fri 10:30:57 PM -15.8080 -47.4350 351° North 474 545 38,000  Level FlightAware ADS-B
Fri 10:31:37 PM -15.7250 -47.4490 351° North 475 547 38,000  Level FlightAware ADS-B
Fri 10:32:22 PM -15.6160 -47.4680 350° North 474 545 38,000  Level FlightAware ADS-B
Fri 10:33:02 PM -15.5340 -47.4820 351° North 472 543 38,000  Level FlightAware ADS-B
Fri 10:35:00 PM -15.2993 -47.4993 356° North  Level Estimated
Fri 10:35:22 PM -15.2400 -47.5330 356° North 473 544 38,000  Level FlightAware ADS-B
Fri 10:36:02 PM -15.1660 -47.5470 350° North 473 544 38,000  Level FlightAware ADS-B
Fri 10:36:42 PM -15.0930 -47.5600 350° North 473 544 38,000  Level FlightAware ADS-B
Fri 10:37:27 PM -14.9610 -47.5800 352° North 473 544 38,000  Level FlightAware ADS-B
Fri 10:38:07 PM -14.8720 -47.5950 351° North 470 541 38,000  Level FlightAware ADS-B
Fri 10:38:52 PM -14.7770 -47.6110 351° North 471 542 38,000  Level FlightAware ADS-B
Fri 10:39:32 PM -14.6930 -47.6250 351° North 472 543 38,000  Level FlightAware ADS-B
Fri 10:40:17 PM -14.5920 -47.6420 351° North 474 545 38,000  Level FlightAware ADS-B
Fri 10:40:57 PM -14.5060 -47.6570 350° North 475 547 38,000  Level FlightAware ADS-B
Fri 10:41:42 PM -14.4080 -47.6730 351° North 476 548 38,000  Level FlightAware ADS-B
Fri 10:42:22 PM -14.3190 -47.6880 351° North 476 548 38,000  Level FlightAware ADS-B
Fri 10:43:02 PM -14.2330 -47.7030 350° North 475 547 38,000  Level FlightAware ADS-B
Fri 10:43:47 PM -14.1350 -47.7200 350° North 473 544 38,000  Level FlightAware ADS-B
Fri 10:44:27 PM -14.0500 -47.7340 351° North 472 543 38,000  Level FlightAware ADS-B
Fri 10:45:12 PM -13.9590 -47.7490 351° North 472 543 38,000  Level FlightAware ADS-B
Fri 10:45:47 PM -13.8790 -47.7630 350° North 473 544 38,000  Level FlightAware ADS-B
Fri 10:46:32 PM -13.7930 -47.7780 350° North 473 544 38,000  Level FlightAware ADS-B
Fri 10:47:12 PM -13.7200 -47.7920 349° North 473 544 38,000  Level FlightAware ADS-B
Fri 10:47:52 PM -13.6470 -47.8050 350° North 473 544 38,000  Level FlightAware ADS-B
Fri 10:48:32 PM -13.5730 -47.8180 350° North 473 544 38,000  Level FlightAware ADS-B
Fri 10:49:22 PM -13.4820 -47.8350 350° North 473 544 38,000  Level FlightAware ADS-B
Fri 10:50:02 PM -13.4090 -47.8480 350° North 473 544 38,000  Level FlightAware ADS-B
Fri 10:50:42 PM -13.3350 -47.8610 350° North 473 544 38,000  Level FlightAware ADS-B
Fri 10:51:22 PM -13.2620 -47.8750 349° North 473 544 38,000  Level FlightAware ADS-B
Fri 10:52:12 PM -13.1700 -47.8910 350° North 473 544 38,000  Level FlightAware ADS-B
Fri 10:52:52 PM -13.0970 -47.9050 349° North 473 544 38,000  Level FlightAware ADS-B
Fri 10:53:32 PM -13.0240 -47.9180 350° North 473 544 38,000  Level FlightAware ADS-B
Fri 10:54:12 PM -12.9510 -47.9310 350° North 473 544 38,000  Level FlightAware ADS-B
Fri 10:54:52 PM -12.8770 -47.9440 350° North 473 544 38,000  Level FlightAware ADS-B
Fri 10:55:32 PM -12.8040 -47.9580 349° North 473 544 38,000  Level FlightAware ADS-B
Fri 10:58:00 PM -12.5092 -47.9718 357° North  Level Estimated
Fri 10:59:00 PM -12.3897 -47.9774 357° North  Level Estimated
Fri 11:00:00 PM -12.2701 -47.9829 357° North  Level Estimated
Fri 11:01:00 PM -12.1506 -47.9885 357° North  Level Estimated
Fri 11:02:00 PM -12.0311 -47.9941 357° North  Level Estimated
Fri 11:02:27 PM -11.7130 -48.1240 357° North 472 543 38,000  Level FlightAware ADS-B
Fri 11:03:07 PM -11.6250 -48.1390 351° North 471 542 38,000  Level FlightAware ADS-B
Fri 11:03:47 PM -11.5340 -48.1540 351° North 471 542 38,000  Level FlightAware ADS-B
Fri 11:04:32 PM -11.4500 -48.1690 350° North 471 542 38,000  Level FlightAware ADS-B
Fri 11:05:07 PM -11.3710 -48.1810 352° North 470 541 38,000  Level FlightAware ADS-B
Fri 11:05:57 PM -11.2550 -48.2000 351° North 471 542 38,000  Level FlightAware ADS-B
Fri 11:06:42 PM -11.1590 -48.2160 351° North 472 543 38,000  Level FlightAware ADS-B
Fri 11:07:22 PM -11.0770 -48.2290 351° North 473 544 38,000  Level FlightAware ADS-B
Fri 11:09:00 PM -10.8816 -48.2341 359° North  Level Estimated
Fri 11:09:27 PM -10.8120 -48.2730 359° North 473 544 38,000  Level FlightAware ADS-B
Fri 11:10:07 PM -10.7270 -48.2870 351° North 472 543 38,000  Level FlightAware ADS-B
Fri 11:10:52 PM -10.6260 -48.2990 353° North 474 545 38,000  Level FlightAware ADS-B
Fri 11:11:37 PM -10.5260 -48.3020 358° North 474 545 38,000  Level FlightAware ADS-B
Fri 11:12:12 PM -10.4530 -48.3040 358° North 474 545 38,000  Level FlightAware ADS-B
Fri 11:12:52 PM -10.3580 -48.3070 358° North 475 547 38,000  Level FlightAware ADS-B
Fri 11:13:42 PM -10.2530 -48.3100 358° North 476 548 38,000  Level FlightAware ADS-B
Fri 11:14:32 PM -10.1420 -48.3140 358° North 476 548 38,000  Level FlightAware ADS-B
Fri 11:15:12 PM -10.0670 -48.3160 358° North 476 548 38,000  Level FlightAware ADS-B
Fri 11:16:12 PM -9.9190 -48.3200 358° North 477 549 38,000  Level FlightAware ADS-B
Fri 11:16:57 PM -9.8230 -48.3230 358° North 477 549 38,000  Level FlightAware ADS-B
Fri 11:17:42 PM -9.7160 -48.3260 358° North 476 548 38,000  Level FlightAware ADS-B
Fri 11:18:37 PM -9.5990 -48.3290 359° North 475 547 38,000  Level FlightAware ADS-B
Fri 11:19:17 PM -9.5070 -48.3320 358° North 475 547 38,000  Level FlightAware ADS-B
Fri 11:19:52 PM -9.4280 -48.3340 359° North 476 548 38,000  Level FlightAware ADS-B
Fri 11:20:37 PM -9.3290 -48.3370 358° North 476 548 38,000  Level FlightAware ADS-B
Fri 11:21:22 PM -9.2280 -48.3400 358° North 476 548 38,000  Level FlightAware ADS-B
Fri 11:22:07 PM -9.1300 -48.3430 358° North 475 547 38,000  Level FlightAware ADS-B
Fri 11:22:47 PM -9.0420 -48.3460 358° North 475 547 38,000  Level FlightAware ADS-B
Fri 11:23:27 PM -8.9550 -48.3480 359° North 476 548 38,000  Level FlightAware ADS-B
Fri 11:24:07 PM -8.9550 -48.3480 359° North 477 549 38,000  Level FlightAware ADS-B
Fri 11:24:52 PM -8.7660 -48.3540 358° North 478 550 38,000  Level FlightAware ADS-B
Fri 11:25:32 PM -8.6810 -48.3570 358° North 478 550 38,000  Level FlightAware ADS-B
Fri 11:26:12 PM -8.6060 -48.3600 358° North 478 550 38,000  Level FlightAware ADS-B
Fri 11:27:02 PM -8.5120 -48.3630 358° North 478 550 38,000  Level FlightAware ADS-B
Fri 11:27:42 PM -8.4370 -48.3650 358° North 478 550 38,000  Level FlightAware ADS-B
Fri 11:28:22 PM -8.3620 -48.3680 358° North 478 550 38,000  Level FlightAware ADS-B
Fri 11:29:02 PM -8.2870 -48.3710 358° North 478 550 38,000  Level FlightAware ADS-B
Fri 11:29:42 PM -8.2120 -48.3730 358° North 478 550 38,000  Level FlightAware ADS-B
Fri 11:30:32 PM -8.1180 -48.3770 358° North 478 550 38,000  Level FlightAware ADS-B
Fri 11:31:12 PM -8.0430 -48.3790 358° North 478 550 38,000  Level FlightAware ADS-B
Fri 11:31:52 PM -7.9670 -48.3820 358° North 478 550 38,000  Level FlightAware ADS-B
Fri 11:32:32 PM -7.8920 -48.3850 358° North 478 550 38,000  Level FlightAware ADS-B
Fri 11:33:12 PM -7.8170 -48.3870 358° North 478 550 38,000  Level FlightAware ADS-B
Fri 11:34:02 PM -7.7230 -48.3910 358° North 478 550 38,000  Level FlightAware ADS-B
Fri 11:34:42 PM -7.6480 -48.3930 358° North 478 550 38,000 -679 Level FlightAware ADS-B
Fri 11:37:00 PM -7.3728 -48.3967 359° North  Level Estimated
Fri 11:38:00 PM -7.2532 -48.3983 359° North  Level Estimated
Fri 11:39:00 PM -7.1336 -48.3999 359° North  Level Estimated
Fri 11:40:00 PM -7.0139 -48.4015 359° North  Level Estimated
Fri 11:41:00 PM -6.8943 -48.4031 359° North  Level Estimated
Fri 11:42:00 PM -6.7746 -48.4047 359° North  Level Estimated
Fri 11:43:00 PM -6.6550 -48.4063 359° North  Level Estimated
Fri 11:44:00 PM -6.5354 -48.4079 359° North  Level Estimated
Fri 11:45:00 PM -6.4157 -48.4095 359° North  Level Estimated
Fri 11:46:00 PM -6.2961 -48.4111 359° North  Level Estimated
Fri 11:47:00 PM -6.1764 -48.4127 359° North  Level Estimated
Fri 11:48:00 PM -6.0568 -48.4143 359° North  Level Estimated
Fri 11:49:00 PM -5.9372 -48.4159 359° North  Level Estimated
Fri 11:50:00 PM -5.8175 -48.4175 359° North  Level Estimated
Fri 11:51:00 PM -5.6979 -48.4191 359° North  Level Estimated
Fri 11:52:00 PM -5.5782 -48.4207 359° North  Level Estimated
Fri 11:53:00 PM -5.4586 -48.4222 359° North  Level Estimated
Fri 11:54:00 PM -5.3390 -48.4238 359° North  Level Estimated
Fri 11:55:00 PM -5.2193 -48.4254 359° North  Level Estimated
Fri 11:56:00 PM -5.0997 -48.4270 359° North  Level Estimated
Fri 11:57:00 PM -4.9800 -48.4286 359° North  Level Estimated
Fri 11:58:00 PM -4.8597 -48.4302 359° North  Level Estimated
Fri 11:59:00 PM -4.7395 -48.4318 359° North  Level Estimated
Sat 12:00:00 AM -4.6192 -48.4334 359° North  Level Estimated
Sat 12:01:00 AM -4.4989 -48.4350 359° North  Level Estimated
Sat 12:02:00 AM -4.3786 -48.4366 359° North  Level Estimated
Sat 12:03:00 AM -4.2583 -48.4382 359° North  Level Estimated
Sat 12:04:00 AM -4.1380 -48.4398 359° North  Level Estimated
Sat 12:05:00 AM -4.0177 -48.4414 359° North  Level Estimated
Sat 12:06:00 AM -3.8974 -48.4430 359° North  Level Estimated
Sat 12:07:00 AM -3.7771 -48.4446 359° North  Level Estimated
Sat 12:08:00 AM -3.6569 -48.4462 359° North  Level Estimated
Sat 12:09:00 AM -3.5366 -48.4478 359° North  Level Estimated
Sat 12:10:00 AM -3.4163 -48.4493 359° North  Level Estimated
Sat 12:11:00 AM -3.2960 -48.4509 359° North  Level Estimated
Sat 12:12:00 AM -3.1757 -48.4525 359° North  Level Estimated
Sat 12:13:00 AM -3.0554 -48.4541 359° North  Level Estimated
Sat 12:14:00 AM -2.9351 -48.4557 359° North  Level Estimated
Sat 12:15:00 AM -2.8148 -48.4573 359° North  Level Estimated
Sat 12:16:00 AM -2.6945 -48.4589 359° North  Level Estimated
Sat 12:17:00 AM -2.5742 -48.4605 359° North  Level Estimated
Sat 12:18:00 AM -2.4539 -48.4621 359° North  Level Estimated
Sat 12:19:00 AM -2.3337 -48.4637 359° North  Level Estimated
Sat 12:20:00 AM -2.2134 -48.4652 359° North  Level Estimated
Sat 12:20:42 AM -1.7740 -48.5810 359° North 287 330 6,300  Level FlightAware ADS-B
Sat 12:21:00 AM -2.0931 -48.4668 359° North  Level Estimated
Sat 12:21:07 AM -1.7410 -48.5840 355° North 286 329 5,700  Level FlightAware ADS-B
Sat 12:21:52 AM -1.6800 -48.5890 355° North 285 328 5,000 -1,005 Descending FlightAware ADS-B
Sat 12:24:00 AM -1.4397 -48.4989 21° North  Level Estimated
Sat 12:24:42 AM -1.4890 -48.5860 21° North 170 196 2,100  Level FlightAware ADS-B
Sat 12:24:52 AM -1.4830 -48.5810 40° Northeast 157 181 2,100  Level FlightAware ADS-B
Sat 12:25:17 AM -1.4710 -48.5690 45° Northeast 157 181 2,100 -218 Level FlightAware ADS-B
Sat 12:25:47 AM -1.4820 -48.5800 225° Southwest 149 171 1,900 -218 Descending FlightAware ADS-B
Sat 12:26:12 AM -1.4710 -48.5690 45° Northeast 149 171 1,900 -600 Level FlightAware ADS-B
Sat 12:26:27 AM -1.4820 -48.5800 225° Southwest 131 151 1,500 -1,067 Descending FlightAware ADS-B
Sat 12:26:57 AM -1.4280 -48.5250 46° Northeast 132 152 1,100 -720 Descending FlightAware ADS-B
Sat 12:27:17 AM -1.4190 -48.5170 42° Northeast 132 152 900 -667 Descending FlightAware ADS-B
Sat 12:27:42 AM -1.4080 -48.5050 47° Northeast 135 155 600 -429 Descending FlightAware ADS-B
Sat 12:28:27 AM -1.3890 -48.4850 46° Northeast 137 158 400 -267 Descending FlightAware ADS-B
Sat 12:31:00 AM -1.3793 -48.4763 42° Northeast  Level Estimated
Sat 12:32:00 AM -1.3793 -48.4763 270° West  Level Estimated
Sat 12:33:00 AM -1.3793 -48.4763 270° West  Level Estimated
Sat 12:34:00 AM -1.3793 -48.4763 270° West  Level Estimated
Sat 12:35:00 AM -1.3793 -48.4763 270° West  Level Estimated
Sat 12:36:00 AM -1.3793 -48.4763 270° West  Level Estimated
Sat 12:37:00 AM -1.3793 -48.4763 270° West  Level Estimated
Sat 12:38:00 AM -1.3793 -48.4763 270° West  Level Estimated
Sat 12:39:00 AM -1.3793 -48.4763 270° West  Level Estimated
Sat 12:40:00 AM -1.3793 -48.4763 270° West  Level Estimated
Sat 12:41:00 AM -1.3793 -48.4763 270° West  Level Estimated
Sat 12:42:00 AM -1.3793 -48.4763 270° West  Level Estimated
Sat 12:43:00 AM -1.3793 -48.4763 270° West  Level Estimated
Sat 12:44:00 AM -1.3793 -48.4763 270° West  Level Estimated
Sat 12:45:00 AM -1.3793 -48.4763 270° West  Level Estimated
Sat 12:46:00 AM -1.3793 -48.4763 270° West  Level Estimated
Sat 12:47:00 AM -1.3793 -48.4763 270° West  Level Estimated

Login

Don't have an account? Register now (free) for customized features, flight alerts, and more!